createdAt,value
2024-02-12T00:01:42.790Z,10.84
2024-02-12T00:04:09.307Z,10.92
2024-02-12T00:06:38.636Z,10.89
2024-02-12T00:09:05.169Z,10.91
2024-02-12T00:11:31.998Z,10.89
2024-02-12T00:13:58.603Z,10.89
2024-02-12T00:16:27.282Z,10.84
2024-02-12T00:18:53.762Z,10.92
2024-02-12T00:21:20.196Z,10.89
2024-02-12T00:23:47.725Z,10.90
2024-02-12T00:26:15.513Z,10.91
2024-02-12T00:28:42.892Z,10.93
2024-02-12T00:31:13.460Z,10.90
2024-02-12T00:33:41.204Z,10.85
2024-02-12T00:36:07.801Z,10.79
2024-02-12T00:38:34.247Z,10.85
2024-02-12T00:41:01.134Z,10.75
2024-02-12T00:43:28.147Z,10.80
2024-02-12T00:45:55.520Z,10.78
2024-02-12T00:48:22.094Z,10.73
2024-02-12T00:50:49.389Z,10.75
2024-02-12T00:53:16.466Z,10.72
2024-02-12T00:55:43.282Z,10.72
2024-02-12T00:58:10.813Z,10.66
2024-02-12T01:00:37.367Z,10.68
2024-02-12T01:03:06.910Z,10.46
2024-02-12T01:05:33.405Z,10.45
2024-02-12T01:08:00.179Z,10.47
2024-02-12T01:10:27.631Z,10.48
2024-02-12T01:12:54.658Z,10.47
2024-02-12T01:15:21.187Z,10.48
2024-02-12T01:17:51.234Z,10.53
2024-02-12T01:20:23.751Z,10.50
2024-02-12T01:22:50.931Z,10.52
2024-02-12T01:25:20.901Z,10.66
2024-02-12T01:27:47.886Z,10.66
2024-02-12T01:30:14.850Z,10.54
2024-02-12T01:32:41.840Z,10.50
2024-02-12T01:35:08.790Z,10.42
2024-02-12T01:37:35.326Z,10.42
2024-02-12T01:40:01.984Z,10.42
2024-02-12T01:42:28.422Z,10.36
2024-02-12T01:45:12.833Z,10.37
2024-02-12T01:47:47.759Z,10.31
2024-02-12T01:50:14.891Z,10.37
2024-02-12T01:52:50.064Z,10.27
2024-02-12T01:55:18.920Z,10.23
2024-02-12T01:57:51.226Z,10.31
2024-02-12T02:00:19.174Z,10.21
2024-02-12T02:02:47.773Z,10.23
2024-02-12T02:05:14.887Z,10.13
2024-02-12T02:07:43.194Z,10.18
2024-02-12T02:10:15.863Z,10.17
2024-02-12T02:12:48.012Z,10.12
2024-02-12T02:15:15.169Z,10.13
2024-02-12T02:17:42.617Z,10.12
2024-02-12T02:20:11.898Z,10.14
2024-02-12T02:22:39.059Z,10.18
2024-02-12T02:25:06.926Z,10.23
2024-02-12T02:27:35.769Z,10.31
2024-02-12T02:30:09.466Z,10.22
2024-02-12T02:32:37.155Z,10.21
2024-02-12T02:35:05.987Z,10.13
2024-02-12T02:37:33.340Z,10.06
2024-02-12T02:39:59.798Z,10.02
2024-02-12T02:42:26.745Z,10.02
2024-02-12T02:44:55.746Z,10.02
2024-02-12T02:47:22.713Z,10.09
2024-02-12T02:49:49.249Z,10.21
2024-02-12T02:52:15.704Z,10.22
2024-02-12T02:54:44.586Z,10.17
2024-02-12T02:57:12.768Z,10.15
2024-02-12T02:59:39.853Z,10.10
2024-02-12T03:02:09.932Z,10.09
2024-02-12T03:04:36.981Z,10.11
2024-02-12T03:07:03.625Z,10.12
2024-02-12T03:09:30.085Z,10.06
2024-02-12T03:11:57.242Z,10.09
2024-02-12T03:14:23.776Z,9.98
2024-02-12T03:16:56.068Z,10.11
2024-02-12T03:19:22.741Z,9.88
2024-02-12T03:21:52.281Z,9.99
2024-02-12T03:24:20.984Z,9.93
2024-02-12T03:26:49.143Z,10.00
2024-02-12T03:29:15.778Z,10.06
2024-02-12T03:31:42.212Z,10.05
2024-02-12T03:34:10.300Z,10.14
2024-02-12T03:36:44.073Z,10.18
2024-02-12T03:39:15.310Z,10.10
2024-02-12T03:41:41.838Z,10.16
2024-02-12T03:44:10.724Z,10.19
2024-02-12T03:46:40.393Z,10.21
2024-02-12T03:49:25.823Z,10.21
2024-02-12T03:52:10.542Z,10.26
2024-02-12T03:54:57.687Z,10.15
2024-02-12T03:57:43.878Z,10.14
2024-02-12T04:00:12.334Z,10.20
2024-02-12T04:02:38.934Z,10.27
2024-02-12T04:05:06.885Z,10.13
2024-02-12T04:07:33.351Z,10.24
2024-02-12T04:10:00.524Z,10.14
2024-02-12T04:12:29.629Z,10.13
2024-02-12T04:14:56.718Z,10.30
2024-02-12T04:17:23.173Z,10.32
2024-02-12T04:19:49.597Z,10.24
2024-02-12T04:22:18.959Z,10.08
2024-02-12T04:24:45.881Z,10.10
2024-02-12T04:27:12.944Z,10.17
2024-02-12T04:29:41.222Z,10.11
2024-02-12T04:32:14.286Z,10.27
2024-02-12T04:34:44.018Z,10.42
2024-02-12T04:37:11.377Z,10.31
2024-02-12T04:39:38.215Z,10.22
2024-02-12T04:42:05.824Z,10.20
2024-02-12T04:44:32.597Z,10.22
2024-02-12T04:47:02.905Z,10.37
2024-02-12T04:49:29.715Z,10.26
2024-02-12T04:51:56.714Z,10.29
2024-02-12T04:54:24.323Z,10.26
2024-02-12T04:56:51.045Z,10.29
2024-02-12T04:59:19.492Z,10.34
2024-02-12T05:01:46.509Z,10.36
2024-02-12T05:04:13.178Z,10.37
2024-02-12T05:06:39.661Z,10.28
2024-02-12T05:09:06.812Z,10.20
2024-02-12T05:11:33.548Z,10.27
2024-02-12T05:14:00.141Z,10.26
2024-02-12T05:16:33.616Z,10.22
2024-02-12T05:19:22.141Z,10.26
2024-02-12T05:22:07.872Z,10.33
2024-02-12T05:24:34.845Z,10.24
2024-02-12T05:27:02.712Z,10.24
2024-02-12T05:29:29.324Z,10.31
2024-02-12T05:31:55.913Z,10.33
2024-02-12T05:34:24.428Z,10.55
2024-02-12T05:36:53.090Z,10.31
2024-02-12T05:39:22.711Z,10.34
2024-02-12T05:41:49.835Z,10.43
2024-02-12T05:44:19.534Z,10.33
2024-02-12T05:46:46.082Z,10.38
2024-02-12T05:49:15.477Z,10.27
2024-02-12T05:51:45.642Z,10.45
2024-02-12T05:54:12.813Z,10.52
2024-02-12T05:56:41.507Z,10.41
2024-02-12T05:59:09.747Z,10.31
2024-02-12T06:01:36.276Z,10.34
2024-02-12T06:04:02.663Z,10.34
2024-02-12T06:06:29.318Z,10.32
2024-02-12T06:08:55.960Z,10.14
2024-02-12T06:11:22.528Z,10.24
2024-02-12T06:13:48.960Z,10.18
2024-02-12T06:16:15.413Z,10.16
2024-02-12T06:18:41.917Z,10.38
2024-02-12T06:21:08.380Z,10.19
2024-02-12T06:23:34.903Z,10.15
2024-02-12T06:26:01.537Z,10.14
2024-02-12T06:28:27.995Z,10.33
2024-02-12T06:30:54.418Z,10.15
2024-02-12T06:33:21.387Z,10.18
2024-02-12T06:35:48.006Z,10.32
2024-02-12T06:38:15.745Z,10.13
2024-02-12T06:40:42.366Z,10.21
2024-02-12T06:43:08.820Z,10.18
2024-02-12T06:45:35.651Z,10.12
2024-02-12T06:48:02.217Z,10.30
2024-02-12T06:50:28.890Z,10.15
2024-02-12T06:52:55.300Z,10.20
2024-02-12T06:55:22.699Z,10.06
2024-02-12T06:57:49.241Z,10.15
2024-02-12T07:00:21.020Z,10.08
2024-02-12T07:02:48.066Z,10.12
2024-02-12T07:05:18.847Z,10.18
2024-02-12T07:07:47.033Z,10.03
2024-02-12T07:10:13.705Z,10.05
2024-02-12T07:12:40.295Z,9.94
2024-02-12T07:15:08.492Z,9.87
2024-02-12T07:17:35.727Z,9.86
2024-02-12T07:20:06.180Z,9.89
2024-02-12T07:22:32.724Z,9.85
2024-02-12T07:24:59.195Z,9.89
2024-02-12T07:27:25.855Z,9.77
2024-02-12T07:29:52.532Z,9.55
2024-02-12T07:32:20.725Z,9.48
2024-02-12T07:34:47.598Z,9.61
2024-02-12T07:37:14.418Z,9.56
2024-02-12T07:39:41.770Z,9.69
2024-02-12T07:42:09.336Z,9.73
2024-02-12T07:44:36.002Z,9.85
2024-02-12T07:47:04.809Z,9.86
2024-02-12T07:49:32.320Z,9.88
2024-02-12T07:52:02.293Z,9.88
2024-02-12T07:54:30.131Z,9.95
2024-02-12T07:56:57.036Z,10.01
2024-02-12T07:59:25.256Z,9.98
2024-02-12T08:01:52.996Z,10.05
2024-02-12T08:04:20.584Z,10.05
2024-02-12T08:06:47.593Z,9.98
2024-02-12T08:09:16.001Z,9.97
2024-02-12T08:11:43.086Z,9.90
2024-02-12T08:14:12.443Z,9.90
2024-02-12T08:16:39.271Z,10.05
2024-02-12T08:19:05.772Z,10.03
2024-02-12T08:21:32.390Z,10.05
2024-02-12T08:23:58.798Z,10.01
2024-02-12T08:26:26.694Z,9.98
2024-02-12T08:28:53.116Z,10.02
2024-02-12T08:31:19.581Z,10.08
2024-02-12T08:33:46.081Z,10.12
2024-02-12T08:36:12.505Z,10.14
2024-02-12T08:38:39.373Z,10.08
2024-02-12T08:41:05.861Z,10.11
2024-02-12T08:43:32.268Z,10.07
2024-02-12T08:45:58.981Z,10.02
2024-02-12T08:48:26.984Z,10.05
2024-02-12T08:50:54.531Z,10.09
2024-02-12T08:53:20.948Z,10.09
2024-02-12T08:55:47.487Z,10.16
2024-02-12T08:58:14.438Z,10.34
2024-02-12T09:00:45.960Z,10.26
2024-02-12T09:03:15.074Z,10.26
2024-02-12T09:05:42.131Z,10.23
2024-02-12T09:08:09.489Z,10.21
2024-02-12T09:10:36.042Z,10.52
2024-02-12T09:13:05.908Z,10.49
2024-02-12T09:15:32.305Z,10.40
2024-02-12T09:17:58.910Z,10.59
2024-02-12T09:20:26.427Z,10.66
2024-02-12T09:22:54.676Z,10.48
2024-02-12T09:25:23.938Z,10.65
2024-02-12T09:27:50.981Z,10.68
2024-02-12T09:30:18.813Z,10.84
2024-02-12T09:32:48.181Z,10.90
2024-02-12T09:35:18.930Z,10.92
2024-02-12T09:37:47.180Z,11.53
2024-02-12T09:40:16.336Z,11.35
2024-02-12T09:42:43.394Z,11.53
2024-02-12T09:45:12.484Z,11.62
2024-02-12T09:47:44.677Z,11.46
2024-02-12T09:50:14.128Z,11.45
2024-02-12T09:52:42.575Z,11.73
2024-02-12T09:55:10.432Z,11.80
2024-02-12T09:57:37.037Z,11.59
2024-02-12T10:00:08.177Z,11.71
2024-02-12T10:02:37.897Z,11.63
2024-02-12T10:05:07.722Z,11.77
2024-02-12T10:07:40.889Z,11.64
2024-02-12T10:10:09.030Z,11.55
2024-02-12T10:12:38.935Z,11.72
2024-02-12T10:15:06.727Z,11.71
2024-02-12T10:17:33.380Z,11.63
2024-02-12T10:20:00.698Z,11.65
2024-02-12T10:22:27.208Z,11.75
2024-02-12T10:24:53.675Z,11.64
2024-02-12T10:27:21.913Z,11.38
2024-02-12T10:30:06.154Z,11.61
2024-02-12T10:32:35.974Z,11.69
2024-02-12T10:35:08.197Z,11.52
2024-02-12T10:37:36.285Z,11.72
2024-02-12T10:40:13.231Z,11.68
2024-02-12T10:42:53.714Z,11.75
2024-02-12T10:45:20.316Z,11.55
2024-02-12T10:47:49.157Z,11.66
2024-02-12T10:50:18.751Z,11.62
2024-02-12T10:52:47.580Z,12.19
2024-02-12T10:55:14.210Z,12.19
2024-02-12T10:57:43.772Z,11.89
2024-02-12T11:00:20.822Z,12.01
2024-02-12T11:02:51.546Z,12.25
2024-02-12T11:05:19.104Z,12.14
2024-02-12T11:07:46.323Z,12.02
2024-02-12T11:10:25.123Z,12.43
2024-02-12T11:12:51.533Z,12.14
2024-02-12T11:15:36.406Z,12.23
2024-02-12T11:18:13.969Z,12.11
2024-02-12T11:20:50.586Z,12.31
2024-02-12T11:23:24.282Z,12.11
2024-02-12T11:25:55.541Z,12.46
2024-02-12T11:28:24.856Z,12.70
2024-02-12T11:30:54.237Z,12.35
2024-02-12T11:33:20.995Z,12.53
2024-02-12T11:35:47.526Z,12.45
2024-02-12T11:38:14.739Z,12.28
2024-02-12T11:40:41.790Z,12.29
2024-02-12T11:43:08.304Z,12.18
2024-02-12T11:45:37.972Z,12.15
2024-02-12T11:48:12.088Z,12.16
2024-02-12T11:50:39.314Z,12.02
2024-02-12T11:53:06.729Z,12.22
2024-02-12T11:55:34.350Z,12.12
2024-02-12T11:58:01.118Z,12.22
2024-02-12T12:00:29.799Z,12.25
2024-02-12T12:02:56.632Z,11.88
2024-02-12T12:05:27.738Z,11.77
2024-02-12T12:07:57.053Z,11.94
2024-02-12T12:10:24.683Z,12.02
2024-02-12T12:12:59.347Z,12.45
2024-02-12T12:15:29.395Z,12.47
2024-02-12T12:17:59.155Z,12.38
2024-02-12T12:20:31.567Z,12.88
2024-02-12T12:23:01.750Z,12.65
2024-02-12T12:25:28.340Z,12.91
2024-02-12T12:27:55.813Z,12.68
2024-02-12T12:30:23.507Z,12.54
2024-02-12T12:32:51.361Z,12.52
2024-02-12T12:35:18.883Z,12.74
2024-02-12T12:37:46.542Z,12.68
2024-02-12T12:40:19.924Z,12.62
2024-02-12T12:42:50.629Z,12.57
2024-02-12T12:45:18.665Z,12.67
2024-02-12T12:47:46.155Z,12.62
2024-02-12T12:50:15.619Z,12.92
2024-02-12T12:52:43.133Z,12.80
2024-02-12T12:55:14.632Z,12.55
2024-02-12T12:57:43.660Z,12.72
2024-02-12T13:00:20.462Z,12.68
2024-02-12T13:02:47.654Z,12.69
2024-02-12T13:05:14.616Z,12.52
2024-02-12T13:07:42.671Z,12.67
2024-02-12T13:12:59.494Z,12.56
2024-02-12T13:15:27.107Z,12.67
2024-02-12T13:17:53.834Z,12.78
2024-02-12T13:20:23.257Z,12.65
2024-02-12T13:22:57.559Z,12.75
2024-02-12T13:25:32.880Z,12.71
2024-02-12T13:28:03.391Z,12.64
2024-02-12T13:30:34.432Z,12.79
2024-02-12T13:33:06.179Z,12.81
2024-02-12T13:35:33.588Z,12.64
2024-02-12T13:38:00.303Z,12.70
2024-02-12T13:40:30.940Z,12.97
2024-02-12T13:42:58.264Z,12.72
2024-02-12T13:45:25.216Z,12.91
2024-02-12T13:47:53.780Z,12.64
2024-02-12T13:50:20.423Z,12.83
2024-02-12T13:52:49.523Z,12.63
2024-02-12T13:55:16.772Z,12.78
2024-02-12T13:57:49.465Z,12.61
2024-02-12T14:00:37.630Z,12.58
2024-02-12T14:03:06.512Z,11.67
2024-02-12T14:05:33.495Z,11.92
2024-02-12T14:08:00.201Z,11.74
2024-02-12T14:10:27.787Z,11.70
2024-02-12T14:12:55.006Z,11.94
2024-02-12T14:16:01.714Z,11.52
2024-02-12T14:18:10.479Z,11.65
2024-02-12T14:20:37.359Z,11.60
2024-02-12T14:23:04.969Z,11.61
2024-02-12T14:25:32.241Z,11.62
2024-02-12T14:27:59.008Z,11.95
2024-02-12T14:30:27.782Z,11.76
2024-02-12T14:32:55.711Z,12.05
2024-02-12T14:35:26.465Z,11.79
2024-02-12T14:37:57.634Z,11.85
2024-02-12T14:40:24.829Z,11.96
2024-02-12T14:42:51.400Z,12.04
2024-02-12T14:45:22.668Z,12.05
2024-02-12T14:47:50.092Z,11.93
2024-02-12T14:50:19.742Z,12.01
2024-02-12T14:52:46.396Z,11.83
2024-02-12T14:55:12.906Z,11.76
2024-02-12T14:57:42.643Z,11.91
2024-02-12T15:00:14.672Z,11.72
2024-02-12T15:02:42.773Z,11.77
2024-02-12T15:05:16.629Z,11.89
2024-02-12T15:07:51.051Z,11.97
2024-02-12T15:10:22.268Z,12.03
2024-02-12T15:12:49.530Z,12.09
2024-02-12T15:15:20.405Z,12.22
2024-02-12T15:17:55.067Z,12.21
2024-02-12T15:20:23.144Z,12.21
2024-02-12T15:22:51.494Z,12.19
2024-02-12T15:25:20.546Z,12.02
2024-02-12T15:27:48.242Z,12.14
2024-02-12T15:30:20.066Z,11.91
2024-02-12T15:32:49.304Z,12.10
2024-02-12T15:35:17.355Z,12.16
2024-02-12T15:37:44.869Z,11.72
2024-02-12T15:40:12.835Z,11.93
2024-02-12T15:42:42.744Z,11.72
2024-02-12T15:45:09.931Z,11.55
2024-02-12T15:47:38.573Z,11.58
2024-02-12T15:50:05.491Z,11.46
2024-02-12T15:52:31.973Z,11.53
2024-02-12T15:54:58.442Z,11.53
2024-02-12T15:57:27.389Z,11.54
2024-02-12T15:59:54.286Z,11.28
2024-02-12T16:02:20.940Z,11.45
2024-02-12T16:04:48.921Z,11.49
2024-02-12T16:07:15.543Z,11.50
2024-02-12T16:09:42.560Z,11.21
2024-02-12T16:12:11.193Z,11.23
2024-02-12T16:14:38.274Z,11.14
2024-02-12T16:17:05.782Z,11.00
2024-02-12T16:19:32.356Z,11.28
2024-02-12T16:21:59.467Z,11.18
2024-02-12T16:24:26.471Z,11.21
2024-02-12T16:26:52.928Z,11.00
2024-02-12T16:29:21.045Z,10.92
2024-02-12T16:31:47.758Z,11.00
2024-02-12T16:34:15.568Z,10.69
2024-02-12T16:36:42.767Z,10.89
2024-02-12T16:39:13.973Z,10.83
2024-02-12T16:41:47.202Z,10.61
2024-02-12T16:44:14.219Z,10.87
2024-02-12T16:46:44.897Z,10.42
2024-02-12T16:49:12.463Z,10.39
2024-02-12T16:51:39.059Z,10.37
2024-02-12T16:54:07.828Z,10.32
2024-02-12T16:56:35.906Z,10.23
2024-02-12T16:59:06.512Z,10.18
2024-02-12T17:01:33.462Z,10.02
2024-02-12T17:03:59.993Z,10.04
2024-02-12T17:06:26.512Z,9.85
2024-02-12T17:08:54.944Z,9.87
2024-02-12T17:11:21.689Z,9.87
2024-02-12T17:13:48.904Z,9.90
2024-02-12T17:16:29.712Z,10.18
2024-02-12T17:19:02.112Z,10.08
2024-02-12T17:21:28.906Z,9.82
2024-02-12T17:23:55.567Z,9.70
2024-02-12T17:26:23.187Z,9.87
2024-02-12T17:28:49.662Z,9.75
2024-02-12T17:31:16.341Z,9.74
2024-02-12T17:33:43.578Z,9.72
2024-02-12T17:36:12.193Z,9.68
2024-02-12T17:38:41.040Z,9.71
2024-02-12T17:41:11.567Z,9.34
2024-02-12T17:43:38.432Z,9.33
2024-02-12T17:46:05.220Z,9.34
2024-02-12T17:48:32.243Z,9.47
2024-02-12T17:50:58.901Z,9.81
2024-02-12T17:53:25.372Z,9.75
2024-02-12T17:55:51.837Z,9.85
2024-02-12T17:58:18.482Z,9.81
2024-02-12T18:00:46.253Z,9.98
2024-02-12T18:03:13.742Z,10.38
2024-02-12T18:05:40.430Z,10.16
2024-02-12T18:08:11.297Z,10.03
2024-02-12T18:10:39.684Z,9.97
2024-02-12T18:13:06.879Z,10.00
2024-02-12T18:15:34.392Z,9.91
2024-02-12T18:18:02.097Z,9.86
2024-02-12T18:20:28.726Z,9.84
2024-02-12T18:22:55.507Z,9.91
2024-02-12T18:25:22.044Z,9.95
2024-02-12T18:27:49.657Z,9.98
2024-02-12T18:30:16.314Z,10.03
2024-02-12T18:32:44.117Z,10.06
2024-02-12T18:35:14.115Z,10.07
2024-02-12T18:37:41.459Z,10.02
2024-02-12T18:40:17.311Z,10.00
2024-02-12T18:42:45.148Z,9.89
2024-02-12T18:45:18.480Z,9.82
2024-02-12T18:47:47.438Z,9.74
2024-02-12T18:50:14.707Z,9.50
2024-02-12T18:52:41.176Z,9.55
2024-02-12T18:55:12.119Z,9.54
2024-02-12T18:57:41.531Z,9.46
2024-02-12T19:00:08.909Z,9.35
2024-02-12T19:02:36.782Z,9.19
2024-02-12T19:05:03.796Z,9.67
2024-02-12T19:07:30.658Z,9.47
2024-02-12T19:09:57.112Z,9.32
2024-02-12T19:12:24.403Z,8.99
2024-02-12T19:14:51.485Z,8.96
2024-02-12T19:17:18.167Z,8.88
2024-02-12T19:19:44.738Z,9.07
2024-02-12T19:22:11.328Z,8.94
2024-02-12T19:24:40.904Z,9.03
2024-02-12T19:27:07.486Z,9.01
2024-02-12T19:29:33.977Z,9.29
2024-02-12T19:32:01.905Z,9.40
2024-02-12T19:34:28.369Z,9.26
2024-02-12T19:36:57.651Z,9.32
2024-02-12T19:39:24.064Z,9.48
2024-02-12T19:41:50.462Z,9.52
2024-02-12T19:44:17.504Z,9.46
2024-02-12T19:46:44.125Z,9.58
2024-02-12T19:49:10.679Z,9.28
2024-02-12T19:51:37.871Z,9.22
2024-02-12T19:54:05.077Z,9.09
2024-02-12T19:56:37.376Z,9.01
2024-02-12T19:59:07.245Z,9.05
2024-02-12T20:01:36.345Z,9.07
2024-02-12T20:04:05.385Z,9.00
2024-02-12T20:06:34.807Z,8.86
2024-02-12T20:09:01.793Z,8.81
2024-02-12T20:11:28.275Z,9.06
2024-02-12T20:13:54.859Z,9.18
2024-02-12T20:16:21.762Z,9.08
2024-02-12T20:18:48.411Z,9.02
2024-02-12T20:21:16.726Z,9.00
2024-02-12T20:23:43.245Z,8.96
2024-02-12T20:26:09.809Z,9.08
2024-02-12T20:28:36.518Z,8.96
2024-02-12T20:31:03.307Z,8.90
2024-02-12T20:33:32.358Z,8.74
2024-02-12T20:36:00.834Z,8.49
2024-02-12T20:38:27.319Z,8.58
2024-02-12T20:40:53.758Z,8.29
2024-02-12T20:43:20.276Z,8.66
2024-02-12T20:45:47.235Z,8.27
2024-02-12T20:48:13.953Z,8.45
2024-02-12T20:50:41.729Z,8.61
2024-02-12T20:53:09.319Z,8.56
2024-02-12T20:55:36.866Z,8.70
2024-02-12T20:58:03.386Z,8.55
2024-02-12T21:00:29.787Z,8.55
2024-02-12T21:02:56.844Z,8.34
2024-02-12T21:05:23.807Z,8.20
2024-02-12T21:07:50.233Z,8.30
2024-02-12T21:10:17.017Z,7.90
2024-02-12T21:12:45.308Z,7.84
2024-02-12T21:15:12.701Z,7.96
2024-02-12T21:17:39.307Z,7.73
2024-02-12T21:20:07.803Z,7.52
2024-02-12T21:22:34.636Z,7.40
2024-02-12T21:25:02.261Z,7.14
2024-02-12T21:27:28.703Z,6.91
2024-02-12T21:29:55.181Z,6.81
2024-02-12T21:32:22.938Z,6.73
2024-02-12T21:34:49.604Z,6.63
2024-02-12T21:37:18.574Z,6.57
2024-02-12T21:39:49.262Z,6.42
2024-02-12T21:42:25.539Z,6.22
2024-02-12T21:44:54.628Z,6.12
2024-02-12T21:47:23.322Z,6.10
2024-02-12T21:49:52.415Z,5.97
2024-02-12T21:52:18.958Z,5.83
2024-02-12T21:54:49.261Z,5.75
2024-02-12T21:57:16.636Z,5.77
2024-02-12T21:59:43.208Z,5.74
2024-02-12T22:02:11.044Z,5.82
2024-02-12T22:04:37.698Z,5.72
2024-02-12T22:07:04.241Z,5.92
2024-02-12T22:09:30.709Z,5.90
2024-02-12T22:11:57.661Z,5.99
2024-02-12T22:14:24.129Z,6.32
2024-02-12T22:16:50.578Z,6.48
2024-02-12T22:19:16.997Z,6.36
2024-02-12T22:21:43.985Z,6.40
2024-02-12T22:24:10.701Z,6.30
2024-02-12T22:26:37.658Z,6.37
2024-02-12T22:29:04.206Z,6.13
2024-02-12T22:31:31.477Z,6.04
2024-02-12T22:33:58.056Z,5.92
2024-02-12T22:36:24.513Z,5.74
2024-02-12T22:38:51.045Z,5.64
2024-02-12T22:41:17.938Z,5.67
2024-02-12T22:43:44.389Z,5.43
2024-02-12T22:46:11.121Z,5.40
2024-02-12T22:48:40.430Z,5.11
2024-02-12T22:51:06.982Z,5.12
2024-02-12T22:53:34.882Z,5.04
2024-02-12T22:56:01.640Z,4.80
2024-02-12T22:58:28.021Z,4.74
2024-02-12T23:00:56.705Z,4.74
2024-02-12T23:03:24.691Z,4.63
2024-02-12T23:05:51.338Z,4.56
2024-02-12T23:08:17.964Z,4.56
2024-02-12T23:10:44.481Z,4.46
2024-02-12T23:13:11.127Z,4.56
2024-02-12T23:15:38.574Z,4.40
2024-02-12T23:18:05.585Z,4.27
2024-02-12T23:20:32.265Z,4.27
2024-02-12T23:22:58.784Z,4.27
2024-02-12T23:25:25.680Z,4.25
2024-02-12T23:27:52.584Z,4.34
2024-02-12T23:30:19.124Z,4.18
2024-02-12T23:32:45.871Z,4.08
2024-02-12T23:35:13.115Z,4.11
2024-02-12T23:37:39.563Z,4.05
2024-02-12T23:40:10.529Z,4.12
2024-02-12T23:42:40.239Z,4.05
2024-02-12T23:45:11.834Z,3.97
2024-02-12T23:47:38.901Z,3.95
2024-02-12T23:50:12.777Z,4.02
2024-02-12T23:52:40.634Z,4.20
2024-02-12T23:55:07.637Z,4.02
2024-02-12T23:57:37.825Z,3.95
